sensor_id;sensor_type;location;lat;lon;timestamp;P1;P2;P0
75385;PMS5003;64239;55.012;73.474;2023-05-29T00:01:21;31.25;26.50;17.25
75385;PMS5003;64239;55.012;73.474;2023-05-29T00:03:50;27.50;24.25;15.75
75385;PMS5003;64239;55.012;73.474;2023-05-29T00:06:17;30.00;25.75;16.50
75385;PMS5003;64239;55.012;73.474;2023-05-29T00:08:43;29.50;25.25;17.00
75385;PMS5003;64239;55.012;73.474;2023-05-29T00:11:09;30.75;25.75;17.00
75385;PMS5003;64239;55.012;73.474;2023-05-29T00:13:35;30.50;25.50;17.00
75385;PMS5003;64239;55.012;73.474;2023-05-29T00:16:01;30.75;26.00;17.50
75385;PMS5003;64239;55.012;73.474;2023-05-29T00:18:29;28.50;25.25;16.50
75385;PMS5003;64239;55.012;73.474;2023-05-29T00:20:54;26.75;23.50;15.75
75385;PMS5003;64239;55.012;73.474;2023-05-29T00:23:21;27.75;24.00;16.25
75385;PMS5003;64239;55.012;73.474;2023-05-29T00:25:47;29.75;26.50;16.75
75385;PMS5003;64239;55.012;73.474;2023-05-29T00:28:13;27.75;24.75;17.25
75385;PMS5003;64239;55.012;73.474;2023-05-29T00:30:39;27.75;24.50;16.50
75385;PMS5003;64239;55.012;73.474;2023-05-29T00:33:05;29.00;24.75;16.75
75385;PMS5003;64239;55.012;73.474;2023-05-29T00:35:31;30.00;25.50;16.75
75385;PMS5003;64239;55.012;73.474;2023-05-29T00:37:57;28.50;24.00;16.50
75385;PMS5003;64239;55.012;73.474;2023-05-29T00:40:23;27.25;24.00;16.50
75385;PMS5003;64239;55.012;73.474;2023-05-29T00:42:50;28.25;25.00;16.75
75385;PMS5003;64239;55.012;73.474;2023-05-29T00:45:16;28.50;24.25;16.50
75385;PMS5003;64239;55.012;73.474;2023-05-29T00:47:42;28.00;24.25;16.50
75385;PMS5003;64239;55.012;73.474;2023-05-29T00:50:11;27.25;24.00;16.00
75385;PMS5003;64239;55.012;73.474;2023-05-29T00:52:42;26.75;23.25;15.25
75385;PMS5003;64239;55.012;73.474;2023-05-29T00:55:09;28.50;24.25;16.00
75385;PMS5003;64239;55.012;73.474;2023-05-29T00:57:35;28.50;24.75;16.50
75385;PMS5003;64239;55.012;73.474;2023-05-29T01:00:03;27.25;23.00;15.00
75385;PMS5003;64239;55.012;73.474;2023-05-29T01:02:42;26.00;23.00;15.50
75385;PMS5003;64239;55.012;73.474;2023-05-29T01:05:10;27.50;24.75;16.25
75385;PMS5003;64239;55.012;73.474;2023-05-29T01:07:37;27.50;24.25;17.00
75385;PMS5003;64239;55.012;73.474;2023-05-29T01:10:03;27.25;23.75;16.25
75385;PMS5003;64239;55.012;73.474;2023-05-29T01:17:47;26.75;23.00;15.00
75385;PMS5003;64239;55.012;73.474;2023-05-29T01:25:18;28.25;24.50;15.75
75385;PMS5003;64239;55.012;73.474;2023-05-29T01:33:56;24.00;21.50;14.25
75385;PMS5003;64239;55.012;73.474;2023-05-29T01:36:22;26.00;23.00;15.00
75385;PMS5003;64239;55.012;73.474;2023-05-29T01:38:49;30.00;24.50;15.50
75385;PMS5003;64239;55.012;73.474;2023-05-29T01:41:16;26.00;22.50;14.50
75385;PMS5003;64239;55.012;73.474;2023-05-29T01:43:43;25.00;21.75;14.25
75385;PMS5003;64239;55.012;73.474;2023-05-29T01:46:11;24.00;21.75;14.25
75385;PMS5003;64239;55.012;73.474;2023-05-29T01:48:38;24.25;21.00;14.00
75385;PMS5003;64239;55.012;73.474;2023-05-29T01:51:04;22.25;20.25;13.50
75385;PMS5003;64239;55.012;73.474;2023-05-29T01:53:32;23.25;21.50;14.00
75385;PMS5003;64239;55.012;73.474;2023-05-29T01:55:59;24.25;21.00;13.75
75385;PMS5003;64239;55.012;73.474;2023-05-29T01:58:25;24.25;21.25;12.75
75385;PMS5003;64239;55.012;73.474;2023-05-29T02:00:52;22.75;19.25;12.00
75385;PMS5003;64239;55.012;73.474;2023-05-29T02:03:18;23.50;21.00;12.00
75385;PMS5003;64239;55.012;73.474;2023-05-29T02:05:44;24.50;21.25;12.50
75385;PMS5003;64239;55.012;73.474;2023-05-29T02:08:10;23.50;20.75;12.75
75385;PMS5003;64239;55.012;73.474;2023-05-29T02:10:37;23.75;21.00;13.00
75385;PMS5003;64239;55.012;73.474;2023-05-29T02:13:03;22.00;19.25;11.50
75385;PMS5003;64239;55.012;73.474;2023-05-29T02:15:29;20.25;17.75;10.75
75385;PMS5003;64239;55.012;73.474;2023-05-29T02:17:55;16.00;13.75;9.00
75385;PMS5003;64239;55.012;73.474;2023-05-29T02:20:21;12.00;11.00;7.00
75385;PMS5003;64239;55.012;73.474;2023-05-29T02:22:47;12.25;11.00;6.75
75385;PMS5003;64239;55.012;73.474;2023-05-29T02:25:12;12.75;11.50;7.00
75385;PMS5003;64239;55.012;73.474;2023-05-29T02:27:38;12.75;11.75;8.25
75385;PMS5003;64239;55.012;73.474;2023-05-29T02:30:04;11.00;9.75;6.50
75385;PMS5003;64239;55.012;73.474;2023-05-29T02:32:31;11.75;10.75;7.00
75385;PMS5003;64239;55.012;73.474;2023-05-29T02:34:57;12.00;11.00;7.00
75385;PMS5003;64239;55.012;73.474;2023-05-29T02:37:23;11.00;9.00;6.00
75385;PMS5003;64239;55.012;73.474;2023-05-29T02:39:54;10.75;9.50;6.00
75385;PMS5003;64239;55.012;73.474;2023-05-29T02:42:21;9.00;8.00;6.00
75385;PMS5003;64239;55.012;73.474;2023-05-29T02:44:47;11.00;10.00;6.00
75385;PMS5003;64239;55.012;73.474;2023-05-29T02:47:13;10.00;9.00;6.00
75385;PMS5003;64239;55.012;73.474;2023-05-29T02:49:39;11.00;10.00;6.00
75385;PMS5003;64239;55.012;73.474;2023-05-29T02:52:05;10.00;9.00;6.00
75385;PMS5003;64239;55.012;73.474;2023-05-29T02:54:31;9.25;8.50;6.00
75385;PMS5003;64239;55.012;73.474;2023-05-29T02:56:59;10.75;10.00;6.50
75385;PMS5003;64239;55.012;73.474;2023-05-29T02:59:28;12.00;11.75;7.25
75385;PMS5003;64239;55.012;73.474;2023-05-29T03:01:54;12.00;10.00;7.00
75385;PMS5003;64239;55.012;73.474;2023-05-29T03:04:20;12.00;11.00;7.00
75385;PMS5003;64239;55.012;73.474;2023-05-29T03:06:46;9.00;9.00;6.00
75385;PMS5003;64239;55.012;73.474;2023-05-29T03:09:12;10.00;9.50;6.25
75385;PMS5003;64239;55.012;73.474;2023-05-29T03:11:38;10.00;9.00;6.00
75385;PMS5003;64239;55.012;73.474;2023-05-29T03:14:06;10.00;9.25;6.75
75385;PMS5003;64239;55.012;73.474;2023-05-29T03:16:32;9.75;9.50;6.25
75385;PMS5003;64239;55.012;73.474;2023-05-29T03:18:58;10.00;9.00;6.75
75385;PMS5003;64239;55.012;73.474;2023-05-29T03:21:24;10.00;9.00;6.00
75385;PMS5003;64239;55.012;73.474;2023-05-29T03:23:51;9.75;9.00;6.00
75385;PMS5003;64239;55.012;73.474;2023-05-29T03:26:17;13.75;12.75;9.00
75385;PMS5003;64239;55.012;73.474;2023-05-29T03:28:43;12.00;10.00;7.00
75385;PMS5003;64239;55.012;73.474;2023-05-29T03:31:08;12.50;10.50;6.25
75385;PMS5003;64239;55.012;73.474;2023-05-29T03:33:35;12.00;10.25;7.00
75385;PMS5003;64239;55.012;73.474;2023-05-29T03:36:01;10.75;9.00;7.00
75385;PMS5003;64239;55.012;73.474;2023-05-29T03:38:27;11.00;10.00;6.00
75385;PMS5003;64239;55.012;73.474;2023-05-29T03:40:54;10.75;9.75;6.00
75385;PMS5003;64239;55.012;73.474;2023-05-29T03:43:20;9.00;8.00;5.00
75385;PMS5003;64239;55.012;73.474;2023-05-29T03:45:45;10.00;8.50;6.00
75385;PMS5003;64239;55.012;73.474;2023-05-29T03:48:11;9.75;9.00;6.00
75385;PMS5003;64239;55.012;73.474;2023-05-29T03:50:37;10.75;9.25;6.75
75385;PMS5003;64239;55.012;73.474;2023-05-29T03:53:03;9.00;8.00;5.00
75385;PMS5003;64239;55.012;73.474;2023-05-29T03:55:29;11.00;10.00;6.00
75385;PMS5003;64239;55.012;73.474;2023-05-29T03:57:55;9.50;9.00;6.25
75385;PMS5003;64239;55.012;73.474;2023-05-29T04:00:21;8.75;7.75;5.50
75385;PMS5003;64239;55.012;73.474;2023-05-29T04:02:47;11.50;9.50;6.00
75385;PMS5003;64239;55.012;73.474;2023-05-29T04:05:13;10.50;9.00;6.00
75385;PMS5003;64239;55.012;73.474;2023-05-29T04:07:39;9.00;9.00;6.00
75385;PMS5003;64239;55.012;73.474;2023-05-29T04:10:05;9.50;8.00;6.00
75385;PMS5003;64239;55.012;73.474;2023-05-29T04:12:32;10.00;9.25;6.25
75385;PMS5003;64239;55.012;73.474;2023-05-29T04:14:58;9.50;9.00;5.50
75385;PMS5003;64239;55.012;73.474;2023-05-29T04:17:24;9.50;8.75;5.50
75385;PMS5003;64239;55.012;73.474;2023-05-29T04:19:50;8.00;7.50;5.75
75385;PMS5003;64239;55.012;73.474;2023-05-29T04:22:16;9.00;9.00;6.00
75385;PMS5003;64239;55.012;73.474;2023-05-29T04:24:41;10.75;9.50;6.00
75385;PMS5003;64239;55.012;73.474;2023-05-29T04:27:10;9.00;9.00;6.00
75385;PMS5003;64239;55.012;73.474;2023-05-29T04:29:40;9.00;8.00;6.00
75385;PMS5003;64239;55.012;73.474;2023-05-29T04:32:10;9.00;9.00;6.00
75385;PMS5003;64239;55.012;73.474;2023-05-29T04:34:37;9.50;8.75;6.00
75385;PMS5003;64239;55.012;73.474;2023-05-29T04:37:04;9.00;8.00;6.00
75385;PMS5003;64239;55.012;73.474;2023-05-29T04:39:31;10.50;9.25;6.50
75385;PMS5003;64239;55.012;73.474;2023-05-29T04:41:57;9.00;8.00;5.75
75385;PMS5003;64239;55.012;73.474;2023-05-29T04:44:24;11.50;9.50;6.50
75385;PMS5003;64239;55.012;73.474;2023-05-29T04:46:52;9.75;9.50;7.00
75385;PMS5003;64239;55.012;73.474;2023-05-29T04:49:17;10.00;9.00;6.25
75385;PMS5003;64239;55.012;73.474;2023-05-29T04:51:44;10.00;9.00;6.00
75385;PMS5003;64239;55.012;73.474;2023-05-29T04:54:11;11.00;9.75;7.00
75385;PMS5003;64239;55.012;73.474;2023-05-29T04:56:38;9.50;8.50;5.75
75385;PMS5003;64239;55.012;73.474;2023-05-29T04:59:05;10.00;8.75;6.25
75385;PMS5003;64239;55.012;73.474;2023-05-29T05:01:32;10.25;9.50;6.50
75385;PMS5003;64239;55.012;73.474;2023-05-29T05:03:59;9.00;8.50;6.00
75385;PMS5003;64239;55.012;73.474;2023-05-29T05:06:26;11.50;9.75;6.25
75385;PMS5003;64239;55.012;73.474;2023-05-29T05:08:52;11.25;10.25;6.00
75385;PMS5003;64239;55.012;73.474;2023-05-29T05:11:18;10.50;9.50;6.75
75385;PMS5003;64239;55.012;73.474;2023-05-29T05:13:45;10.00;9.00;6.00
75385;PMS5003;64239;55.012;73.474;2023-05-29T05:16:10;10.25;9.25;7.00
75385;PMS5003;64239;55.012;73.474;2023-05-29T05:18:37;11.00;10.00;6.75
75385;PMS5003;64239;55.012;73.474;2023-05-29T05:21:03;12.00;11.00;7.00
75385;PMS5003;64239;55.012;73.474;2023-05-29T05:23:29;11.50;10.75;7.50
75385;PMS5003;64239;55.012;73.474;2023-05-29T05:25:55;10.25;9.75;7.00
75385;PMS5003;64239;55.012;73.474;2023-05-29T05:28:21;8.50;8.25;6.00
75385;PMS5003;64239;55.012;73.474;2023-05-29T05:30:47;11.00;10.50;7.00
75385;PMS5003;64239;55.012;73.474;2023-05-29T05:33:13;11.75;10.50;7.00
75385;PMS5003;64239;55.012;73.474;2023-05-29T05:35:39;11.00;10.00;7.00
75385;PMS5003;64239;55.012;73.474;2023-05-29T05:38:05;12.50;11.75;7.50
75385;PMS5003;64239;55.012;73.474;2023-05-29T05:40:32;11.50;11.00;7.00
75385;PMS5003;64239;55.012;73.474;2023-05-29T05:42:58;11.75;11.00;7.50
75385;PMS5003;64239;55.012;73.474;2023-05-29T05:45:24;12.00;11.00;6.75
75385;PMS5003;64239;55.012;73.474;2023-05-29T05:47:50;12.50;10.75;7.00
75385;PMS5003;64239;55.012;73.474;2023-05-29T05:50:16;12.50;12.00;7.50
75385;PMS5003;64239;55.012;73.474;2023-05-29T05:52:42;10.75;9.25;6.25
75385;PMS5003;64239;55.012;73.474;2023-05-29T05:55:08;11.00;9.75;7.00
75385;PMS5003;64239;55.012;73.474;2023-05-29T05:57:34;10.75;9.00;7.00
75385;PMS5003;64239;55.012;73.474;2023-05-29T06:00:01;11.50;10.25;6.75
75385;PMS5003;64239;55.012;73.474;2023-05-29T06:02:30;11.00;10.00;7.00
75385;PMS5003;64239;55.012;73.474;2023-05-29T06:04:56;9.00;8.50;6.00
75385;PMS5003;64239;55.012;73.474;2023-05-29T06:07:21;9.50;8.75;5.75
75385;PMS5003;64239;55.012;73.474;2023-05-29T06:09:48;10.00;9.75;6.25
75385;PMS5003;64239;55.012;73.474;2023-05-29T06:12:14;10.00;8.75;6.25
75385;PMS5003;64239;55.012;73.474;2023-05-29T06:14:41;8.75;7.75;5.00
75385;PMS5003;64239;55.012;73.474;2023-05-29T06:17:07;8.75;8.50;5.75
75385;PMS5003;64239;55.012;73.474;2023-05-29T06:19:33;8.50;8.00;6.00
75385;PMS5003;64239;55.012;73.474;2023-05-29T06:21:59;9.00;8.25;6.00
75385;PMS5003;64239;55.012;73.474;2023-05-29T06:24:24;7.75;7.75;5.75
75385;PMS5003;64239;55.012;73.474;2023-05-29T06:26:50;10.00;8.75;6.00
75385;PMS5003;64239;55.012;73.474;2023-05-29T06:29:16;9.00;8.25;6.00
75385;PMS5003;64239;55.012;73.474;2023-05-29T06:31:42;9.00;8.00;5.25
75385;PMS5003;64239;55.012;73.474;2023-05-29T06:34:08;9.00;8.75;5.25
75385;PMS5003;64239;55.012;73.474;2023-05-29T06:36:34;9.00;8.25;6.00
75385;PMS5003;64239;55.012;73.474;2023-05-29T06:39:00;8.00;7.75;5.50
75385;PMS5003;64239;55.012;73.474;2023-05-29T06:41:26;8.75;8.00;5.00
75385;PMS5003;64239;55.012;73.474;2023-05-29T06:43:52;8.00;7.75;6.25
75385;PMS5003;64239;55.012;73.474;2023-05-29T06:46:18;9.00;8.00;5.00
75385;PMS5003;64239;55.012;73.474;2023-05-29T06:48:44;8.50;7.75;5.75
75385;PMS5003;64239;55.012;73.474;2023-05-29T06:51:10;8.00;7.00;6.00
75385;PMS5003;64239;55.012;73.474;2023-05-29T06:53:39;9.00;8.25;6.00
75385;PMS5003;64239;55.012;73.474;2023-05-29T06:56:05;8.25;7.25;5.00
75385;PMS5003;64239;55.012;73.474;2023-05-29T06:58:32;9.25;8.50;6.00
75385;PMS5003;64239;55.012;73.474;2023-05-29T07:04:01;9.25;8.75;6.00
75385;PMS5003;64239;55.012;73.474;2023-05-29T07:06:27;10.50;9.25;6.50
75385;PMS5003;64239;55.012;73.474;2023-05-29T07:08:53;12.00;11.00;7.00
75385;PMS5003;64239;55.012;73.474;2023-05-29T07:11:18;12.75;11.00;7.00
75385;PMS5003;64239;55.012;73.474;2023-05-29T07:13:56;12.00;11.00;7.00
75385;PMS5003;64239;55.012;73.474;2023-05-29T07:16:34;11.25;10.25;7.00
75385;PMS5003;64239;55.012;73.474;2023-05-29T07:18:59;11.00;10.00;6.50
75385;PMS5003;64239;55.012;73.474;2023-05-29T07:21:25;11.00;10.50;7.00
75385;PMS5003;64239;55.012;73.474;2023-05-29T07:23:51;12.00;11.00;7.00
75385;PMS5003;64239;55.012;73.474;2023-05-29T07:26:17;11.00;10.00;7.00
75385;PMS5003;64239;55.012;73.474;2023-05-29T07:28:43;10.75;10.00;7.00
75385;PMS5003;64239;55.012;73.474;2023-05-29T07:31:09;10.25;10.50;6.25
75385;PMS5003;64239;55.012;73.474;2023-05-29T07:33:35;14.25;12.75;8.00
75385;PMS5003;64239;55.012;73.474;2023-05-29T07:36:00;12.25;11.50;7.00
75385;PMS5003;64239;55.012;73.474;2023-05-29T07:38:26;10.50;10.25;7.25
75385;PMS5003;64239;55.012;73.474;2023-05-29T07:40:52;12.50;10.75;6.50
75385;PMS5003;64239;55.012;73.474;2023-05-29T07:43:18;11.25;10.50;7.00
75385;PMS5003;64239;55.012;73.474;2023-05-29T07:45:44;12.75;11.50;7.00
75385;PMS5003;64239;55.012;73.474;2023-05-29T07:48:10;11.25;10.50;7.50
75385;PMS5003;64239;55.012;73.474;2023-05-29T07:50:36;13.00;12.00;8.00
75385;PMS5003;64239;55.012;73.474;2023-05-29T07:53:02;11.25;10.25;8.00
75385;PMS5003;64239;55.012;73.474;2023-05-29T07:55:34;12.75;12.00;8.50
75385;PMS5003;64239;55.012;73.474;2023-05-29T07:58:00;10.25;9.75;7.00
75385;PMS5003;64239;55.012;73.474;2023-05-29T08:00:27;13.25;12.00;8.00
75385;PMS5003;64239;55.012;73.474;2023-05-29T08:02:53;11.75;10.50;7.00
75385;PMS5003;64239;55.012;73.474;2023-05-29T08:05:20;13.25;11.50;8.00
75385;PMS5003;64239;55.012;73.474;2023-05-29T08:07:46;13.25;11.50;7.50
75385;PMS5003;64239;55.012;73.474;2023-05-29T08:10:13;11.00;10.50;7.00
75385;PMS5003;64239;55.012;73.474;2023-05-29T08:12:39;11.25;11.00;7.75
75385;PMS5003;64239;55.012;73.474;2023-05-29T08:15:06;11.00;10.50;7.25
75385;PMS5003;64239;55.012;73.474;2023-05-29T08:17:31;10.50;9.50;7.00
75385;PMS5003;64239;55.012;73.474;2023-05-29T08:19:57;13.00;12.00;8.00
75385;PMS5003;64239;55.012;73.474;2023-05-29T08:22:27;13.50;12.00;8.00
75385;PMS5003;64239;55.012;73.474;2023-05-29T08:24:54;11.75;11.25;8.00
75385;PMS5003;64239;55.012;73.474;2023-05-29T08:27:19;13.25;12.00;7.25
75385;PMS5003;64239;55.012;73.474;2023-05-29T08:29:45;12.25;11.25;8.00
75385;PMS5003;64239;55.012;73.474;2023-05-29T08:32:11;11.00;10.75;8.00
75385;PMS5003;64239;55.012;73.474;2023-05-29T08:34:37;11.25;11.00;7.00
75385;PMS5003;64239;55.012;73.474;2023-05-29T08:37:03;11.75;11.50;8.00
75385;PMS5003;64239;55.012;73.474;2023-05-29T08:39:30;12.00;11.00;8.00
75385;PMS5003;64239;55.012;73.474;2023-05-29T08:44:29;10.50;10.00;7.50
75385;PMS5003;64239;55.012;73.474;2023-05-29T08:46:56;13.00;12.00;8.75
75385;PMS5003;64239;55.012;73.474;2023-05-29T08:49:22;13.50;12.25;8.50
75385;PMS5003;64239;55.012;73.474;2023-05-29T08:51:49;11.00;10.00;8.00
75385;PMS5003;64239;55.012;73.474;2023-05-29T08:54:20;13.00;12.00;8.00
75385;PMS5003;64239;55.012;73.474;2023-05-29T08:56:46;13.00;12.00;8.00
75385;PMS5003;64239;55.012;73.474;2023-05-29T08:59:12;13.75;12.50;8.75
75385;PMS5003;64239;55.012;73.474;2023-05-29T09:01:38;14.50;13.00;8.00
75385;PMS5003;64239;55.012;73.474;2023-05-29T09:04:04;10.75;10.00;7.50
75385;PMS5003;64239;55.012;73.474;2023-05-29T09:06:40;15.25;13.25;9.75
75385;PMS5003;64239;55.012;73.474;2023-05-29T09:09:06;16.00;15.00;10.00
75385;PMS5003;64239;55.012;73.474;2023-05-29T09:11:32;15.00;14.50;10.25
75385;PMS5003;64239;55.012;73.474;2023-05-29T09:13:58;17.25;15.50;10.50
75385;PMS5003;64239;55.012;73.474;2023-05-29T09:16:25;16.50;16.00;12.00
75385;PMS5003;64239;55.012;73.474;2023-05-29T09:18:51;15.00;14.00;9.75
75385;PMS5003;64239;55.012;73.474;2023-05-29T09:21:26;16.75;15.50;10.50
75385;PMS5003;64239;55.012;73.474;2023-05-29T09:23:53;16.00;15.75;10.75
75385;PMS5003;64239;55.012;73.474;2023-05-29T09:26:27;16.25;14.25;9.50
75385;PMS5003;64239;55.012;73.474;2023-05-29T09:29:13;15.75;14.50;10.00
75385;PMS5003;64239;55.012;73.474;2023-05-29T09:31:47;17.25;15.25;10.25
75385;PMS5003;64239;55.012;73.474;2023-05-29T09:34:14;17.50;15.50;10.25
75385;PMS5003;64239;55.012;73.474;2023-05-29T09:36:40;16.00;14.00;10.50
75385;PMS5003;64239;55.012;73.474;2023-05-29T09:39:07;16.00;13.75;9.25
75385;PMS5003;64239;55.012;73.474;2023-05-29T09:41:42;15.00;13.50;9.25
75385;PMS5003;64239;55.012;73.474;2023-05-29T09:44:10;15.00;13.75;9.50
75385;PMS5003;64239;55.012;73.474;2023-05-29T09:46:39;14.50;12.75;8.50
75385;PMS5003;64239;55.012;73.474;2023-05-29T09:49:12;15.25;14.75;10.00
75385;PMS5003;64239;55.012;73.474;2023-05-29T09:51:39;15.75;14.25;9.25
75385;PMS5003;64239;55.012;73.474;2023-05-29T09:54:13;16.00;15.00;11.00
75385;PMS5003;64239;55.012;73.474;2023-05-29T09:56:40;15.00;14.00;9.75
75385;PMS5003;64239;55.012;73.474;2023-05-29T09:59:11;14.75;14.00;9.50
75385;PMS5003;64239;55.012;73.474;2023-05-29T10:01:38;14.50;13.00;9.50
75385;PMS5003;64239;55.012;73.474;2023-05-29T10:04:05;15.50;14.00;9.50
75385;PMS5003;64239;55.012;73.474;2023-05-29T10:06:31;14.25;13.25;9.00
75385;PMS5003;64239;55.012;73.474;2023-05-29T10:08:58;14.50;14.25;9.75
75385;PMS5003;64239;55.012;73.474;2023-05-29T10:11:25;15.00;14.00;9.00
75385;PMS5003;64239;55.012;73.474;2023-05-29T10:13:52;14.00;13.00;9.00
75385;PMS5003;64239;55.012;73.474;2023-05-29T10:16:20;12.50;11.50;8.50
75385;PMS5003;64239;55.012;73.474;2023-05-29T10:18:53;12.75;11.75;8.75
75385;PMS5003;64239;55.012;73.474;2023-05-29T10:21:24;12.75;11.50;8.25
75385;PMS5003;64239;55.012;73.474;2023-05-29T10:23:51;12.50;12.25;9.00
75385;PMS5003;64239;55.012;73.474;2023-05-29T10:26:21;14.00;12.75;8.00
75385;PMS5003;64239;55.012;73.474;2023-05-29T10:31:30;13.50;12.75;8.75
75385;PMS5003;64239;55.012;73.474;2023-05-29T10:36:42;13.00;12.50;9.00
75385;PMS5003;64239;55.012;73.474;2023-05-29T10:39:10;13.25;12.25;8.50
75385;PMS5003;64239;55.012;73.474;2023-05-29T10:41:37;13.00;13.00;9.25
75385;PMS5003;64239;55.012;73.474;2023-05-29T10:49:21;15.00;14.00;9.25
75385;PMS5003;64239;55.012;73.474;2023-05-29T10:51:47;12.50;11.50;8.50
75385;PMS5003;64239;55.012;73.474;2023-05-29T10:54:17;13.25;12.75;9.00
75385;PMS5003;64239;55.012;73.474;2023-05-29T10:56:55;15.00;14.25;9.50
75385;PMS5003;64239;55.012;73.474;2023-05-29T10:59:21;14.75;13.50;9.00
75385;PMS5003;64239;55.012;73.474;2023-05-29T11:01:47;13.50;12.50;8.50
75385;PMS5003;64239;55.012;73.474;2023-05-29T11:06:45;14.00;13.00;9.25
75385;PMS5003;64239;55.012;73.474;2023-05-29T11:09:28;13.50;12.25;9.00
75385;PMS5003;64239;55.012;73.474;2023-05-29T11:12:15;14.25;13.75;10.00
75385;PMS5003;64239;55.012;73.474;2023-05-29T11:15:10;13.50;12.50;9.00
75385;PMS5003;64239;55.012;73.474;2023-05-29T11:20:08;14.00;13.75;9.00
75385;PMS5003;64239;55.012;73.474;2023-05-29T11:25:07;12.00;11.50;8.00
75385;PMS5003;64239;55.012;73.474;2023-05-29T11:27:33;13.00;12.00;8.00
75385;PMS5003;64239;55.012;73.474;2023-05-29T11:30:00;13.50;12.50;9.00
75385;PMS5003;64239;55.012;73.474;2023-05-29T11:32:26;14.00;13.00;9.00
75385;PMS5003;64239;55.012;73.474;2023-05-29T11:34:53;14.00;13.25;9.00
75385;PMS5003;64239;55.012;73.474;2023-05-29T11:37:21;13.50;12.75;8.50
75385;PMS5003;64239;55.012;73.474;2023-05-29T11:39:48;14.00;13.00;9.00
75385;PMS5003;64239;55.012;73.474;2023-05-29T11:42:14;13.75;12.75;9.00
75385;PMS5003;64239;55.012;73.474;2023-05-29T11:44:43;13.25;12.50;9.00
75385;PMS5003;64239;55.012;73.474;2023-05-29T11:47:16;14.00;13.00;9.00
75385;PMS5003;64239;55.012;73.474;2023-05-29T11:49:44;14.00;13.00;9.25
75385;PMS5003;64239;55.012;73.474;2023-05-29T11:52:11;16.00;15.00;10.00
75385;PMS5003;64239;55.012;73.474;2023-05-29T11:54:37;15.00;14.00;10.00
75385;PMS5003;64239;55.012;73.474;2023-05-29T11:57:03;16.00;14.25;10.00
75385;PMS5003;64239;55.012;73.474;2023-05-29T11:59:32;16.00;15.00;10.00
75385;PMS5003;64239;55.012;73.474;2023-05-29T12:01:59;16.50;14.75;10.00
75385;PMS5003;64239;55.012;73.474;2023-05-29T12:04:24;15.25;13.50;9.75
75385;PMS5003;64239;55.012;73.474;2023-05-29T12:06:50;16.25;15.75;11.00
75385;PMS5003;64239;55.012;73.474;2023-05-29T12:09:23;14.00;14.25;10.00
75385;PMS5003;64239;55.012;73.474;2023-05-29T12:11:50;16.75;15.25;10.25
75385;PMS5003;64239;55.012;73.474;2023-05-29T12:14:16;17.00;16.00;11.00
75385;PMS5003;64239;55.012;73.474;2023-05-29T12:16:43;15.25;14.25;10.00
75385;PMS5003;64239;55.012;73.474;2023-05-29T12:19:09;16.75;15.25;10.00
75385;PMS5003;64239;55.012;73.474;2023-05-29T12:21:35;16.00;14.75;9.75
75385;PMS5003;64239;55.012;73.474;2023-05-29T12:24:02;16.50;15.00;9.75
75385;PMS5003;64239;55.012;73.474;2023-05-29T12:26:30;16.50;15.00;10.00
75385;PMS5003;64239;55.012;73.474;2023-05-29T12:28:56;15.50;14.25;10.50
75385;PMS5003;64239;55.012;73.474;2023-05-29T12:31:26;15.00;13.75;9.00
75385;PMS5003;64239;55.012;73.474;2023-05-29T12:33:53;15.50;13.75;10.00
75385;PMS5003;64239;55.012;73.474;2023-05-29T12:36:18;13.00;11.50;8.50
75385;PMS5003;64239;55.012;73.474;2023-05-29T12:38:49;14.50;13.00;9.00
75385;PMS5003;64239;55.012;73.474;2023-05-29T12:41:23;14.00;13.00;10.00
75385;PMS5003;64239;55.012;73.474;2023-05-29T12:43:49;13.25;12.25;7.75
75385;PMS5003;64239;55.012;73.474;2023-05-29T12:46:16;15.50;14.00;10.00
75385;PMS5003;64239;55.012;73.474;2023-05-29T12:48:42;14.00;13.50;10.00
75385;PMS5003;64239;55.012;73.474;2023-05-29T12:51:08;13.00;12.75;9.00
75385;PMS5003;64239;55.012;73.474;2023-05-29T12:53:34;20.00;17.75;12.00
75385;PMS5003;64239;55.012;73.474;2023-05-29T12:56:00;29.00;24.50;15.50
75385;PMS5003;64239;55.012;73.474;2023-05-29T12:58:26;29.50;25.25;14.75
75385;PMS5003;64239;55.012;73.474;2023-05-29T13:00:53;30.50;26.00;16.00
75385;PMS5003;64239;55.012;73.474;2023-05-29T13:03:22;23.00;20.00;13.25
75385;PMS5003;64239;55.012;73.474;2023-05-29T13:05:49;23.50;21.25;13.75
75385;PMS5003;64239;55.012;73.474;2023-05-29T13:08:15;24.00;21.00;14.00
75385;PMS5003;64239;55.012;73.474;2023-05-29T13:10:42;24.00;21.75;13.50
75385;PMS5003;64239;55.012;73.474;2023-05-29T13:13:08;25.50;22.25;14.50
75385;PMS5003;64239;55.012;73.474;2023-05-29T13:15:35;34.50;29.00;19.50
75385;PMS5003;64239;55.012;73.474;2023-05-29T13:18:01;34.75;29.75;20.00
75385;PMS5003;64239;55.012;73.474;2023-05-29T13:20:27;33.00;28.00;19.50
75385;PMS5003;64239;55.012;73.474;2023-05-29T13:22:54;34.00;29.00;19.75
75385;PMS5003;64239;55.012;73.474;2023-05-29T13:25:21;33.25;29.00;19.25
75385;PMS5003;64239;55.012;73.474;2023-05-29T13:27:49;32.00;28.50;19.25
75385;PMS5003;64239;55.012;73.474;2023-05-29T13:30:15;32.50;27.50;18.75
75385;PMS5003;64239;55.012;73.474;2023-05-29T13:32:41;32.25;27.75;18.50
75385;PMS5003;64239;55.012;73.474;2023-05-29T13:35:07;37.00;30.75;20.00
75385;PMS5003;64239;55.012;73.474;2023-05-29T13:37:35;35.25;29.50;19.50
75385;PMS5003;64239;55.012;73.474;2023-05-29T13:40:01;36.00;30.00;19.00
75385;PMS5003;64239;55.012;73.474;2023-05-29T13:42:28;34.50;28.75;18.50
75385;PMS5003;64239;55.012;73.474;2023-05-29T13:44:54;32.50;27.50;18.50
75385;PMS5003;64239;55.012;73.474;2023-05-29T13:47:20;32.00;27.00;18.50
75385;PMS5003;64239;55.012;73.474;2023-05-29T13:49:46;33.25;28.00;19.50
75385;PMS5003;64239;55.012;73.474;2023-05-29T13:52:11;32.50;28.00;18.25
75385;PMS5003;64239;55.012;73.474;2023-05-29T13:54:38;29.50;25.50;16.25
75385;PMS5003;64239;55.012;73.474;2023-05-29T13:57:04;28.25;24.75;16.00
75385;PMS5003;64239;55.012;73.474;2023-05-29T13:59:34;29.50;25.00;17.00
75385;PMS5003;64239;55.012;73.474;2023-05-29T14:02:00;23.25;21.25;14.75
75385;PMS5003;64239;55.012;73.474;2023-05-29T14:04:28;24.00;22.00;14.25
75385;PMS5003;64239;55.012;73.474;2023-05-29T14:06:54;26.75;22.75;14.75
75385;PMS5003;64239;55.012;73.474;2023-05-29T14:09:23;26.00;22.00;14.75
75385;PMS5003;64239;55.012;73.474;2023-05-29T14:11:56;50.00;39.00;24.00
75385;PMS5003;64239;55.012;73.474;2023-05-29T14:14:23;43.50;36.25;23.75
75385;PMS5003;64239;55.012;73.474;2023-05-29T14:16:49;49.50;40.00;26.75
75385;PMS5003;64239;55.012;73.474;2023-05-29T14:19:15;47.25;40.00;26.75
75385;PMS5003;64239;55.012;73.474;2023-05-29T14:21:41;45.75;38.25;26.00
75385;PMS5003;64239;55.012;73.474;2023-05-29T14:24:07;45.50;38.25;26.75
75385;PMS5003;64239;55.012;73.474;2023-05-29T14:26:34;43.75;36.75;26.00